Briefing drone pour Arpajon-sur-cere

Rechercher une autre localisation

Conditions de vol :


Nous sommes le : Samedi 17 avril 2021
Il est 16:56 UTC (18:56 LT)

Lever de soleil : 04:34 UTC (06:34 LT)
Coucher de soleil : 19:04 UTC (21:04 LT)

Météo

L'essentiel des conditions de vol

VIGILANCE MÉTÉO FRANCE - Cantal (15)
Pas de vigilances particulieres
METAR de LFLW
LFLW 171630Z AUTO 34011KT 290V360 CAVOK 10/M02 Q1017 NOSIG

Date d'émission: 17/04/2021
Heure d'émission: 16:30 UTC
Vent: 340° (variable du 290° au 360°) pour 11 KT (20 km/h)
Visibilité horizontale: > 10 km
Plafond : Plafond et visibilité OK (CAVOK)
Température: 10 °C
Point de rosée: -2 °C
Humidité: 43%
Pression (QNH): 1017 hPa
Conditions: Pas de changement dans les 2 heures (NOSIG)
Prévision 24h pour Aurillac (1 km)
Vent : 344° pour 3 KT (11 km/h)
Temperature Maxi: 8 °C
Temperature Min: 8 °C
Humidité : 53%
Condition : Nuageux



Warning: count(): Parameter must be an array or an object that implements Countable in /homepages/6/d509196549/htdocs/droneoxygene/briefing.php on line 743
WEBCAM POUR ARPAJON-SUR-CERE

Réglementation

Voler en sécurité

CARTES AERONAUTIQUE 1/500.000
CARTES VAC (LFLW)
SUP AIP




Chargement des AIP...
NOTAM (ARPAJON-SUR-CERE + Terrain à proximité / FIR )




Chargement des NOTAMS...
CONTACT PREFECTURE 15


Avertissement : Les données mises à disposition sont indicatives. Oxygène Drone ne pourra être tenu responsable de dégâts causés aux biens et aux personnes.